sensor_id;sensor_type;location;lat;lon;timestamp;temperature;humidity
72940;DHT22;61094;51.154;13.570;2023-03-14T00:02:06;10.90;99.90
72940;DHT22;61094;51.154;13.570;2023-03-14T00:21:40;10.90;99.90
72940;DHT22;61094;51.154;13.570;2023-03-14T00:26:14;10.80;99.90
72940;DHT22;61094;51.154;13.570;2023-03-14T00:28:16;10.80;99.90
72940;DHT22;61094;51.154;13.570;2023-03-14T00:30:18;10.70;99.90
72940;DHT22;61094;51.154;13.570;2023-03-14T00:32:20;10.70;99.90
72940;DHT22;61094;51.154;13.570;2023-03-14T00:34:22;10.70;99.90
72940;DHT22;61094;51.154;13.570;2023-03-14T00:36:24;10.70;99.90
72940;DHT22;61094;51.154;13.570;2023-03-14T00:38:27;10.70;99.90
72940;DHT22;61094;51.154;13.570;2023-03-14T00:40:29;10.70;99.90
72940;DHT22;61094;51.154;13.570;2023-03-14T00:42:31;10.70;99.90
72940;DHT22;61094;51.154;13.570;2023-03-14T00:44:33;10.70;99.90
72940;DHT22;61094;51.154;13.570;2023-03-14T00:46:34;10.70;99.90
72940;DHT22;61094;51.154;13.570;2023-03-14T00:48:36;10.70;99.90
72940;DHT22;61094;51.154;13.570;2023-03-14T00:50:38;10.70;99.90
72940;DHT22;61094;51.154;13.570;2023-03-14T00:52:39;10.70;99.90
72940;DHT22;61094;51.154;13.570;2023-03-14T00:54:42;10.70;99.90
72940;DHT22;61094;51.154;13.570;2023-03-14T00:56:44;10.70;99.90
72940;DHT22;61094;51.154;13.570;2023-03-14T00:58:46;10.70;99.90
72940;DHT22;61094;51.154;13.570;2023-03-14T01:00:48;10.70;99.90
72940;DHT22;61094;51.154;13.570;2023-03-14T01:02:49;10.70;99.90
72940;DHT22;61094;51.154;13.570;2023-03-14T01:04:51;10.70;99.90
72940;DHT22;61094;51.154;13.570;2023-03-14T01:06:52;10.60;99.90
72940;DHT22;61094;51.154;13.570;2023-03-14T01:08:55;10.60;99.90
72940;DHT22;61094;51.154;13.570;2023-03-14T01:10:58;10.60;99.90
72940;DHT22;61094;51.154;13.570;2023-03-14T01:13:00;10.70;99.90
72940;DHT22;61094;51.154;13.570;2023-03-14T01:15:03;10.60;99.90
72940;DHT22;61094;51.154;13.570;2023-03-14T01:17:07;10.60;99.90
72940;DHT22;61094;51.154;13.570;2023-03-14T01:19:09;10.70;99.90
72940;DHT22;61094;51.154;13.570;2023-03-14T01:21:13;10.70;99.90
72940;DHT22;61094;51.154;13.570;2023-03-14T01:23:15;10.60;99.90
72940;DHT22;61094;51.154;13.570;2023-03-14T01:25:17;10.60;99.90
72940;DHT22;61094;51.154;13.570;2023-03-14T01:27:20;10.60;99.90
72940;DHT22;61094;51.154;13.570;2023-03-14T01:29:22;10.60;99.90
72940;DHT22;61094;51.154;13.570;2023-03-14T01:31:25;10.70;99.90
72940;DHT22;61094;51.154;13.570;2023-03-14T01:33:27;10.70;99.90
72940;DHT22;61094;51.154;13.570;2023-03-14T01:35:29;10.70;99.90
72940;DHT22;61094;51.154;13.570;2023-03-14T01:37:31;10.70;99.90
72940;DHT22;61094;51.154;13.570;2023-03-14T01:39:33;10.70;99.90
72940;DHT22;61094;51.154;13.570;2023-03-14T01:41:35;10.70;99.90
72940;DHT22;61094;51.154;13.570;2023-03-14T01:43:38;10.70;99.90
72940;DHT22;61094;51.154;13.570;2023-03-14T01:46:12;10.70;99.90
72940;DHT22;61094;51.154;13.570;2023-03-14T01:48:17;10.70;99.90
72940;DHT22;61094;51.154;13.570;2023-03-14T01:50:19;10.60;99.90
72940;DHT22;61094;51.154;13.570;2023-03-14T01:52:23;10.70;99.90
72940;DHT22;61094;51.154;13.570;2023-03-14T01:54:30;10.70;99.90
72940;DHT22;61094;51.154;13.570;2023-03-14T01:56:33;10.70;99.90
72940;DHT22;61094;51.154;13.570;2023-03-14T01:58:35;10.70;99.90
72940;DHT22;61094;51.154;13.570;2023-03-14T02:00:38;10.70;99.90
72940;DHT22;61094;51.154;13.570;2023-03-14T02:02:42;10.70;99.90
72940;DHT22;61094;51.154;13.570;2023-03-14T02:04:45;10.70;99.90
72940;DHT22;61094;51.154;13.570;2023-03-14T02:06:54;10.70;99.90
72940;DHT22;61094;51.154;13.570;2023-03-14T02:09:01;10.70;99.90
72940;DHT22;61094;51.154;13.570;2023-03-14T02:11:06;10.70;99.90
72940;DHT22;61094;51.154;13.570;2023-03-14T02:13:25;10.70;99.90
72940;DHT22;61094;51.154;13.570;2023-03-14T02:15:50;10.80;99.90
72940;DHT22;61094;51.154;13.570;2023-03-14T02:18:17;10.80;99.90
72940;DHT22;61094;51.154;13.570;2023-03-14T02:20:34;10.80;99.90
72940;DHT22;61094;51.154;13.570;2023-03-14T02:22:42;10.80;99.90
72940;DHT22;61094;51.154;13.570;2023-03-14T02:24:50;10.80;99.90
72940;DHT22;61094;51.154;13.570;2023-03-14T02:27:06;10.80;99.90
72940;DHT22;61094;51.154;13.570;2023-03-14T02:29:09;10.80;99.90
72940;DHT22;61094;51.154;13.570;2023-03-14T02:31:11;10.90;99.90
72940;DHT22;61094;51.154;13.570;2023-03-14T02:33:16;10.90;99.90
72940;DHT22;61094;51.154;13.570;2023-03-14T02:35:21;10.90;99.90
72940;DHT22;61094;51.154;13.570;2023-03-14T02:37:26;11.00;99.90
72940;DHT22;61094;51.154;13.570;2023-03-14T02:39:35;11.00;99.90
72940;DHT22;61094;51.154;13.570;2023-03-14T02:41:37;11.00;99.90
72940;DHT22;61094;51.154;13.570;2023-03-14T02:43:42;11.00;99.90
72940;DHT22;61094;51.154;13.570;2023-03-14T02:45:47;11.00;99.90
72940;DHT22;61094;51.154;13.570;2023-03-14T02:47:54;11.00;99.90
72940;DHT22;61094;51.154;13.570;2023-03-14T02:50:03;11.00;99.90
72940;DHT22;61094;51.154;13.570;2023-03-14T02:52:05;11.10;99.90
72940;DHT22;61094;51.154;13.570;2023-03-14T02:54:08;11.10;99.90
72940;DHT22;61094;51.154;13.570;2023-03-14T02:56:10;11.10;99.90
72940;DHT22;61094;51.154;13.570;2023-03-14T02:58:12;11.10;99.90
72940;DHT22;61094;51.154;13.570;2023-03-14T03:00:17;11.20;99.90
72940;DHT22;61094;51.154;13.570;2023-03-14T03:02:19;11.20;99.90
72940;DHT22;61094;51.154;13.570;2023-03-14T03:04:20;11.30;99.90
72940;DHT22;61094;51.154;13.570;2023-03-14T03:06:22;11.30;99.90
72940;DHT22;61094;51.154;13.570;2023-03-14T03:08:25;11.40;99.90
72940;DHT22;61094;51.154;13.570;2023-03-14T03:10:28;11.50;99.90
72940;DHT22;61094;51.154;13.570;2023-03-14T03:12:30;11.60;99.90
72940;DHT22;61094;51.154;13.570;2023-03-14T03:14:32;11.60;99.90
72940;DHT22;61094;51.154;13.570;2023-03-14T03:16:38;11.60;99.90
72940;DHT22;61094;51.154;13.570;2023-03-14T03:18:40;11.60;99.90
72940;DHT22;61094;51.154;13.570;2023-03-14T03:20:42;11.60;99.90
72940;DHT22;61094;51.154;13.570;2023-03-14T03:22:43;11.60;99.90
72940;DHT22;61094;51.154;13.570;2023-03-14T03:24:45;11.60;99.90
72940;DHT22;61094;51.154;13.570;2023-03-14T03:26:46;11.60;99.90
72940;DHT22;61094;51.154;13.570;2023-03-14T03:28:50;11.60;99.90
72940;DHT22;61094;51.154;13.570;2023-03-14T03:30:52;11.60;99.90
72940;DHT22;61094;51.154;13.570;2023-03-14T03:32:55;11.70;99.90
72940;DHT22;61094;51.154;13.570;2023-03-14T03:34:56;11.60;99.90
72940;DHT22;61094;51.154;13.570;2023-03-14T03:36:58;11.60;99.90
72940;DHT22;61094;51.154;13.570;2023-03-14T03:39:03;11.60;99.90
72940;DHT22;61094;51.154;13.570;2023-03-14T03:41:06;11.60;99.90
72940;DHT22;61094;51.154;13.570;2023-03-14T03:43:08;11.50;99.90
72940;DHT22;61094;51.154;13.570;2023-03-14T03:45:12;11.50;99.90
72940;DHT22;61094;51.154;13.570;2023-03-14T03:47:22;11.50;99.90
72940;DHT22;61094;51.154;13.570;2023-03-14T03:49:28;11.50;99.90
72940;DHT22;61094;51.154;13.570;2023-03-14T03:51:30;11.50;99.90
72940;DHT22;61094;51.154;13.570;2023-03-14T03:53:32;11.50;99.90
72940;DHT22;61094;51.154;13.570;2023-03-14T03:55:34;11.50;99.90
72940;DHT22;61094;51.154;13.570;2023-03-14T03:57:36;11.50;99.90
72940;DHT22;61094;51.154;13.570;2023-03-14T03:59:38;11.50;99.90
72940;DHT22;61094;51.154;13.570;2023-03-14T04:01:42;11.50;99.90
72940;DHT22;61094;51.154;13.570;2023-03-14T04:03:44;11.40;99.90
72940;DHT22;61094;51.154;13.570;2023-03-14T04:05:57;11.40;99.90
72940;DHT22;61094;51.154;13.570;2023-03-14T04:07:58;11.50;99.90
72940;DHT22;61094;51.154;13.570;2023-03-14T04:10:02;11.40;99.90
72940;DHT22;61094;51.154;13.570;2023-03-14T04:12:09;11.40;99.90
72940;DHT22;61094;51.154;13.570;2023-03-14T04:14:31;11.30;99.90
72940;DHT22;61094;51.154;13.570;2023-03-14T04:16:41;11.30;99.90
72940;DHT22;61094;51.154;13.570;2023-03-14T04:18:47;11.30;99.90
72940;DHT22;61094;51.154;13.570;2023-03-14T04:20:52;11.40;99.90
72940;DHT22;61094;51.154;13.570;2023-03-14T04:22:56;11.40;99.90
72940;DHT22;61094;51.154;13.570;2023-03-14T04:24:58;11.40;99.90
72940;DHT22;61094;51.154;13.570;2023-03-14T04:26:59;11.40;99.90
72940;DHT22;61094;51.154;13.570;2023-03-14T04:29:01;11.40;99.90
72940;DHT22;61094;51.154;13.570;2023-03-14T04:31:07;11.40;99.90
72940;DHT22;61094;51.154;13.570;2023-03-14T04:33:08;11.40;99.90
72940;DHT22;61094;51.154;13.570;2023-03-14T04:35:17;11.40;99.90
72940;DHT22;61094;51.154;13.570;2023-03-14T04:37:20;11.40;99.90
72940;DHT22;61094;51.154;13.570;2023-03-14T04:39:22;11.40;99.90
72940;DHT22;61094;51.154;13.570;2023-03-14T04:41:39;11.40;99.90
72940;DHT22;61094;51.154;13.570;2023-03-14T04:43:44;11.40;99.90
72940;DHT22;61094;51.154;13.570;2023-03-14T04:45:47;11.30;99.90
72940;DHT22;61094;51.154;13.570;2023-03-14T04:47:49;11.30;99.90
72940;DHT22;61094;51.154;13.570;2023-03-14T04:49:53;11.30;99.90
72940;DHT22;61094;51.154;13.570;2023-03-14T04:51:57;11.30;99.90
72940;DHT22;61094;51.154;13.570;2023-03-14T04:54:02;11.20;99.90
72940;DHT22;61094;51.154;13.570;2023-03-14T04:56:05;11.10;99.90
72940;DHT22;61094;51.154;13.570;2023-03-14T04:58:11;11.10;99.90
72940;DHT22;61094;51.154;13.570;2023-03-14T05:00:14;11.20;99.90
72940;DHT22;61094;51.154;13.570;2023-03-14T05:02:41;11.10;99.90
72940;DHT22;61094;51.154;13.570;2023-03-14T05:04:52;11.10;99.90
72940;DHT22;61094;51.154;13.570;2023-03-14T05:07:13;11.10;99.90
72940;DHT22;61094;51.154;13.570;2023-03-14T05:09:42;11.10;99.90
72940;DHT22;61094;51.154;13.570;2023-03-14T05:12:00;11.10;99.90
72940;DHT22;61094;51.154;13.570;2023-03-14T05:14:10;11.10;99.90
72940;DHT22;61094;51.154;13.570;2023-03-14T05:16:42;11.00;99.90
72940;DHT22;61094;51.154;13.570;2023-03-14T05:19:01;11.00;99.90
72940;DHT22;61094;51.154;13.570;2023-03-14T05:21:20;11.00;99.90
72940;DHT22;61094;51.154;13.570;2023-03-14T05:23:45;11.00;99.90
72940;DHT22;61094;51.154;13.570;2023-03-14T05:26:14;11.00;99.90
72940;DHT22;61094;51.154;13.570;2023-03-14T05:28:36;10.90;99.90
72940;DHT22;61094;51.154;13.570;2023-03-14T05:30:47;10.90;99.90
72940;DHT22;61094;51.154;13.570;2023-03-14T05:33:16;10.90;99.90
72940;DHT22;61094;51.154;13.570;2023-03-14T05:35:30;10.90;99.90
72940;DHT22;61094;51.154;13.570;2023-03-14T05:37:46;10.90;99.90
72940;DHT22;61094;51.154;13.570;2023-03-14T05:40:26;10.90;99.90
72940;DHT22;61094;51.154;13.570;2023-03-14T05:42:59;10.90;99.90
72940;DHT22;61094;51.154;13.570;2023-03-14T05:45:19;10.90;99.90
72940;DHT22;61094;51.154;13.570;2023-03-14T05:47:24;10.90;99.90
72940;DHT22;61094;51.154;13.570;2023-03-14T05:49:39;10.90;99.90
72940;DHT22;61094;51.154;13.570;2023-03-14T05:51:55;10.90;99.90
72940;DHT22;61094;51.154;13.570;2023-03-14T05:54:15;10.90;99.90
72940;DHT22;61094;51.154;13.570;2023-03-14T05:56:34;10.90;99.90
72940;DHT22;61094;51.154;13.570;2023-03-14T05:58:46;10.90;99.90
72940;DHT22;61094;51.154;13.570;2023-03-14T06:01:20;10.90;99.90
72940;DHT22;61094;51.154;13.570;2023-03-14T06:03:49;10.90;99.90
72940;DHT22;61094;51.154;13.570;2023-03-14T06:05:50;10.90;99.90
72940;DHT22;61094;51.154;13.570;2023-03-14T06:07:53;10.90;99.90
72940;DHT22;61094;51.154;13.570;2023-03-14T06:09:55;10.90;99.90
72940;DHT22;61094;51.154;13.570;2023-03-14T06:11:57;10.90;99.90
72940;DHT22;61094;51.154;13.570;2023-03-14T06:14:00;10.90;99.90
72940;DHT22;61094;51.154;13.570;2023-03-14T06:16:02;10.90;99.90
72940;DHT22;61094;51.154;13.570;2023-03-14T06:18:04;10.80;99.90
72940;DHT22;61094;51.154;13.570;2023-03-14T06:20:09;10.90;99.90
72940;DHT22;61094;51.154;13.570;2023-03-14T06:22:13;10.90;99.90
72940;DHT22;61094;51.154;13.570;2023-03-14T06:26:25;10.90;99.90
72940;DHT22;61094;51.154;13.570;2023-03-14T06:28:26;10.90;99.90
72940;DHT22;61094;51.154;13.570;2023-03-14T06:30:34;10.90;99.90
72940;DHT22;61094;51.154;13.570;2023-03-14T06:32:35;10.90;99.90
72940;DHT22;61094;51.154;13.570;2023-03-14T06:34:41;10.90;99.90
72940;DHT22;61094;51.154;13.570;2023-03-14T06:36:43;10.90;99.90
72940;DHT22;61094;51.154;13.570;2023-03-14T06:38:45;10.90;99.90
72940;DHT22;61094;51.154;13.570;2023-03-14T06:40:47;10.90;99.90
72940;DHT22;61094;51.154;13.570;2023-03-14T06:42:55;11.00;99.90
72940;DHT22;61094;51.154;13.570;2023-03-14T06:44:58;11.00;99.90
72940;DHT22;61094;51.154;13.570;2023-03-14T06:47:02;11.00;99.90
72940;DHT22;61094;51.154;13.570;2023-03-14T06:49:04;11.00;99.90
72940;DHT22;61094;51.154;13.570;2023-03-14T06:51:07;11.10;99.90
72940;DHT22;61094;51.154;13.570;2023-03-14T06:53:09;11.10;99.90
72940;DHT22;61094;51.154;13.570;2023-03-14T06:55:31;11.20;99.90
72940;DHT22;61094;51.154;13.570;2023-03-14T06:57:32;11.20;99.90
72940;DHT22;61094;51.154;13.570;2023-03-14T06:59:34;11.20;99.90
72940;DHT22;61094;51.154;13.570;2023-03-14T07:01:36;11.30;99.90
72940;DHT22;61094;51.154;13.570;2023-03-14T07:03:42;11.20;99.90
72940;DHT22;61094;51.154;13.570;2023-03-14T07:05:44;11.30;99.90
72940;DHT22;61094;51.154;13.570;2023-03-14T07:07:46;11.30;99.90
72940;DHT22;61094;51.154;13.570;2023-03-14T07:09:48;11.30;99.90
72940;DHT22;61094;51.154;13.570;2023-03-14T07:11:50;11.30;99.90
72940;DHT22;61094;51.154;13.570;2023-03-14T07:13:52;11.40;99.50
72940;DHT22;61094;51.154;13.570;2023-03-14T07:15:55;11.40;98.90
72940;DHT22;61094;51.154;13.570;2023-03-14T07:17:57;11.50;99.50
72940;DHT22;61094;51.154;13.570;2023-03-14T07:20:01;11.50;98.80
72940;DHT22;61094;51.154;13.570;2023-03-14T07:22:04;11.50;98.50
72940;DHT22;61094;51.154;13.570;2023-03-14T07:24:06;11.50;98.60
72940;DHT22;61094;51.154;13.570;2023-03-14T07:26:08;11.60;99.00
72940;DHT22;61094;51.154;13.570;2023-03-14T07:28:14;11.60;98.90
72940;DHT22;61094;51.154;13.570;2023-03-14T07:30:17;11.60;98.70
72940;DHT22;61094;51.154;13.570;2023-03-14T07:32:20;11.60;98.60
72940;DHT22;61094;51.154;13.570;2023-03-14T07:34:22;11.60;99.90
72940;DHT22;61094;51.154;13.570;2023-03-14T07:36:26;11.60;98.70
72940;DHT22;61094;51.154;13.570;2023-03-14T07:38:28;11.60;97.90
72940;DHT22;61094;51.154;13.570;2023-03-14T07:41:00;11.70;99.50
72940;DHT22;61094;51.154;13.570;2023-03-14T07:43:04;11.70;99.00
72940;DHT22;61094;51.154;13.570;2023-03-14T07:45:19;11.70;97.00
72940;DHT22;61094;51.154;13.570;2023-03-14T07:47:21;11.80;97.00
72940;DHT22;61094;51.154;13.570;2023-03-14T07:49:23;11.80;98.30
72940;DHT22;61094;51.154;13.570;2023-03-14T07:51:26;11.90;98.10
72940;DHT22;61094;51.154;13.570;2023-03-14T07:53:28;11.90;97.90
72940;DHT22;61094;51.154;13.570;2023-03-14T07:55:30;11.90;97.60
72940;DHT22;61094;51.154;13.570;2023-03-14T07:57:31;11.90;97.00
72940;DHT22;61094;51.154;13.570;2023-03-14T07:59:33;12.00;98.90
72940;DHT22;61094;51.154;13.570;2023-03-14T08:01:35;12.00;98.40
72940;DHT22;61094;51.154;13.570;2023-03-14T08:03:37;12.00;96.20
72940;DHT22;61094;51.154;13.570;2023-03-14T08:05:38;12.00;98.90
72940;DHT22;61094;51.154;13.570;2023-03-14T08:07:42;12.00;96.80
72940;DHT22;61094;51.154;13.570;2023-03-14T08:09:44;12.00;98.00
72940;DHT22;61094;51.154;13.570;2023-03-14T08:11:46;12.00;99.90
72940;DHT22;61094;51.154;13.570;2023-03-14T08:13:48;12.00;97.40
72940;DHT22;61094;51.154;13.570;2023-03-14T08:15:51;12.00;97.40
72940;DHT22;61094;51.154;13.570;2023-03-14T08:17:52;12.10;96.80
72940;DHT22;61094;51.154;13.570;2023-03-14T08:19:54;12.10;97.50
72940;DHT22;61094;51.154;13.570;2023-03-14T08:21:56;12.10;98.00
72940;DHT22;61094;51.154;13.570;2023-03-14T08:23:59;12.20;96.80
72940;DHT22;61094;51.154;13.570;2023-03-14T08:26:01;12.20;95.30
72940;DHT22;61094;51.154;13.570;2023-03-14T08:28:03;12.30;95.30
72940;DHT22;61094;51.154;13.570;2023-03-14T08:30:07;12.30;95.40
72940;DHT22;61094;51.154;13.570;2023-03-14T08:32:09;12.30;94.10
72940;DHT22;61094;51.154;13.570;2023-03-14T08:34:10;12.40;94.60
72940;DHT22;61094;51.154;13.570;2023-03-14T08:36:12;12.40;96.10
72940;DHT22;61094;51.154;13.570;2023-03-14T08:38:14;12.40;94.10
72940;DHT22;61094;51.154;13.570;2023-03-14T08:40:18;12.40;92.20
72940;DHT22;61094;51.154;13.570;2023-03-14T08:42:20;12.50;92.10
72940;DHT22;61094;51.154;13.570;2023-03-14T08:44:22;12.50;93.80
72940;DHT22;61094;51.154;13.570;2023-03-14T08:46:24;12.60;90.50
72940;DHT22;61094;51.154;13.570;2023-03-14T08:48:26;12.70;92.30
72940;DHT22;61094;51.154;13.570;2023-03-14T08:50:27;12.70;90.20
72940;DHT22;61094;51.154;13.570;2023-03-14T08:52:29;12.80;89.70
72940;DHT22;61094;51.154;13.570;2023-03-14T08:54:32;12.80;86.00
72940;DHT22;61094;51.154;13.570;2023-03-14T08:56:35;12.80;90.50
72940;DHT22;61094;51.154;13.570;2023-03-14T08:58:38;12.80;86.40
72940;DHT22;61094;51.154;13.570;2023-03-14T09:00:40;12.90;87.40
72940;DHT22;61094;51.154;13.570;2023-03-14T09:02:42;12.90;83.80
72940;DHT22;61094;51.154;13.570;2023-03-14T09:04:44;13.00;83.20
72940;DHT22;61094;51.154;13.570;2023-03-14T09:06:46;13.10;85.40
72940;DHT22;61094;51.154;13.570;2023-03-14T09:08:48;13.20;88.60
72940;DHT22;61094;51.154;13.570;2023-03-14T09:10:50;13.20;82.70
72940;DHT22;61094;51.154;13.570;2023-03-14T09:12:53;13.20;81.30
72940;DHT22;61094;51.154;13.570;2023-03-14T09:14:55;13.20;78.80
72940;DHT22;61094;51.154;13.570;2023-03-14T09:16:57;13.30;80.10
72940;DHT22;61094;51.154;13.570;2023-03-14T09:18:58;13.40;78.00
72940;DHT22;61094;51.154;13.570;2023-03-14T09:21:00;13.50;77.70
72940;DHT22;61094;51.154;13.570;2023-03-14T09:23:02;13.60;76.30
72940;DHT22;61094;51.154;13.570;2023-03-14T09:25:04;13.60;70.40
72940;DHT22;61094;51.154;13.570;2023-03-14T09:27:07;13.70;71.40
72940;DHT22;61094;51.154;13.570;2023-03-14T09:29:10;13.80;73.00
72940;DHT22;61094;51.154;13.570;2023-03-14T09:31:12;13.80;73.90
72940;DHT22;61094;51.154;13.570;2023-03-14T09:33:15;13.80;75.00
72940;DHT22;61094;51.154;13.570;2023-03-14T09:35:17;13.70;71.80
72940;DHT22;61094;51.154;13.570;2023-03-14T09:37:19;13.70;67.90
72940;DHT22;61094;51.154;13.570;2023-03-14T09:39:21;13.60;70.20
72940;DHT22;61094;51.154;13.570;2023-03-14T09:41:25;13.60;73.40
72940;DHT22;61094;51.154;13.570;2023-03-14T09:43:29;13.50;74.60
72940;DHT22;61094;51.154;13.570;2023-03-14T09:45:34;13.40;73.70
72940;DHT22;61094;51.154;13.570;2023-03-14T09:47:37;13.40;72.20
72940;DHT22;61094;51.154;13.570;2023-03-14T09:49:40;13.30;75.10
72940;DHT22;61094;51.154;13.570;2023-03-14T09:51:42;13.30;74.20
72940;DHT22;61094;51.154;13.570;2023-03-14T09:53:47;13.30;74.90
72940;DHT22;61094;51.154;13.570;2023-03-14T09:55:50;13.20;82.00
72940;DHT22;61094;51.154;13.570;2023-03-14T09:57:56;13.20;74.30
72940;DHT22;61094;51.154;13.570;2023-03-14T10:00:02;13.10;74.50
72940;DHT22;61094;51.154;13.570;2023-03-14T10:02:17;13.10;75.50
72940;DHT22;61094;51.154;13.570;2023-03-14T10:04:22;13.10;77.70
72940;DHT22;61094;51.154;13.570;2023-03-14T10:06:27;13.10;74.10
72940;DHT22;61094;51.154;13.570;2023-03-14T10:08:29;13.00;76.30
72940;DHT22;61094;51.154;13.570;2023-03-14T10:10:31;13.00;75.10
72940;DHT22;61094;51.154;13.570;2023-03-14T10:12:35;13.00;77.80
72940;DHT22;61094;51.154;13.570;2023-03-14T10:14:44;13.00;79.30
72940;DHT22;61094;51.154;13.570;2023-03-14T10:16:46;13.00;78.40
72940;DHT22;61094;51.154;13.570;2023-03-14T10:18:49;12.90;80.20
72940;DHT22;61094;51.154;13.570;2023-03-14T10:21:02;13.00;77.20
72940;DHT22;61094;51.154;13.570;2023-03-14T10:23:06;12.90;76.40
72940;DHT22;61094;51.154;13.570;2023-03-14T10:25:25;12.90;76.70
72940;DHT22;61094;51.154;13.570;2023-03-14T10:27:29;12.90;77.20
72940;DHT22;61094;51.154;13.570;2023-03-14T10:29:33;12.90;73.90
72940;DHT22;61094;51.154;13.570;2023-03-14T10:31:47;12.90;79.30
72940;DHT22;61094;51.154;13.570;2023-03-14T10:33:59;12.90;78.00
72940;DHT22;61094;51.154;13.570;2023-03-14T10:36:03;12.90;77.80
72940;DHT22;61094;51.154;13.570;2023-03-14T10:38:11;12.90;78.30
72940;DHT22;61094;51.154;13.570;2023-03-14T10:40:14;12.90;81.80
72940;DHT22;61094;51.154;13.570;2023-03-14T10:42:19;12.90;76.90
72940;DHT22;61094;51.154;13.570;2023-03-14T10:44:24;12.90;80.00
72940;DHT22;61094;51.154;13.570;2023-03-14T10:46:29;12.90;78.90
72940;DHT22;61094;51.154;13.570;2023-03-14T10:48:51;12.90;76.40
72940;DHT22;61094;51.154;13.570;2023-03-14T10:50:57;12.90;78.90
72940;DHT22;61094;51.154;13.570;2023-03-14T10:53:03;12.90;78.10
72940;DHT22;61094;51.154;13.570;2023-03-14T10:55:11;13.00;80.80
72940;DHT22;61094;51.154;13.570;2023-03-14T10:57:13;12.90;76.90
72940;DHT22;61094;51.154;13.570;2023-03-14T10:59:15;12.90;78.30
72940;DHT22;61094;51.154;13.570;2023-03-14T11:01:28;13.00;78.30
72940;DHT22;61094;51.154;13.570;2023-03-14T11:03:36;13.00;80.00
72940;DHT22;61094;51.154;13.570;2023-03-14T11:05:41;13.00;79.70
72940;DHT22;61094;51.154;13.570;2023-03-14T11:07:45;13.00;78.40
72940;DHT22;61094;51.154;13.570;2023-03-14T11:09:51;13.10;76.80
72940;DHT22;61094;51.154;13.570;2023-03-14T11:12:02;13.10;79.30
72940;DHT22;61094;51.154;13.570;2023-03-14T11:14:14;13.10;76.80
72940;DHT22;61094;51.154;13.570;2023-03-14T11:16:22;13.20;75.50
72940;DHT22;61094;51.154;13.570;2023-03-14T11:18:53;13.20;74.20
72940;DHT22;61094;51.154;13.570;2023-03-14T11:21:02;13.30;77.10
72940;DHT22;61094;51.154;13.570;2023-03-14T11:23:10;13.60;71.80
72940;DHT22;61094;51.154;13.570;2023-03-14T11:25:21;13.60;72.10
72940;DHT22;61094;51.154;13.570;2023-03-14T11:27:28;13.80;71.40
72940;DHT22;61094;51.154;13.570;2023-03-14T11:29:38;13.80;69.00
72940;DHT22;61094;51.154;13.570;2023-03-14T11:31:44;13.80;70.40
72940;DHT22;61094;51.154;13.570;2023-03-14T11:33:51;13.90;68.00
72940;DHT22;61094;51.154;13.570;2023-03-14T11:35:58;13.90;70.30
72940;DHT22;61094;51.154;13.570;2023-03-14T11:38:12;13.90;67.70
72940;DHT22;61094;51.154;13.570;2023-03-14T11:40:18;13.90;63.00
72940;DHT22;61094;51.154;13.570;2023-03-14T11:42:21;13.90;67.50
72940;DHT22;61094;51.154;13.570;2023-03-14T11:44:27;13.90;68.20
72940;DHT22;61094;51.154;13.570;2023-03-14T11:46:35;13.90;65.80
72940;DHT22;61094;51.154;13.570;2023-03-14T11:48:43;13.90;63.50
72940;DHT22;61094;51.154;13.570;2023-03-14T11:50:49;13.80;63.90
72940;DHT22;61094;51.154;13.570;2023-03-14T11:52:55;13.90;64.70
72940;DHT22;61094;51.154;13.570;2023-03-14T11:55:05;13.90;67.90
72940;DHT22;61094;51.154;13.570;2023-03-14T11:57:12;14.00;63.80
72940;DHT22;61094;51.154;13.570;2023-03-14T11:59:17;14.10;66.40
72940;DHT22;61094;51.154;13.570;2023-03-14T12:01:21;14.30;64.70
72940;DHT22;61094;51.154;13.570;2023-03-14T12:03:34;14.50;61.00
72940;DHT22;61094;51.154;13.570;2023-03-14T12:05:50;14.60;58.60
72940;DHT22;61094;51.154;13.570;2023-03-14T12:10:29;15.00;57.80
72940;DHT22;61094;51.154;13.570;2023-03-14T12:12:37;15.10;54.90
72940;DHT22;61094;51.154;13.570;2023-03-14T12:14:45;15.20;54.50
72940;DHT22;61094;51.154;13.570;2023-03-14T12:16:48;15.40;55.00
72940;DHT22;61094;51.154;13.570;2023-03-14T12:18:51;15.60;54.10
72940;DHT22;61094;51.154;13.570;2023-03-14T12:20:55;15.70;53.40
72940;DHT22;61094;51.154;13.570;2023-03-14T12:23:03;15.70;52.90
72940;DHT22;61094;51.154;13.570;2023-03-14T12:25:15;15.70;53.00
72940;DHT22;61094;51.154;13.570;2023-03-14T12:27:43;15.70;53.10
72940;DHT22;61094;51.154;13.570;2023-03-14T12:29:59;15.70;53.30
72940;DHT22;61094;51.154;13.570;2023-03-14T12:32:20;15.70;55.20
72940;DHT22;61094;51.154;13.570;2023-03-14T12:34:30;15.90;53.80
72940;DHT22;61094;51.154;13.570;2023-03-14T12:39:20;16.00;53.30
72940;DHT22;61094;51.154;13.570;2023-03-14T12:41:28;16.00;53.20
72940;DHT22;61094;51.154;13.570;2023-03-14T12:43:33;16.00;52.50
72940;DHT22;61094;51.154;13.570;2023-03-14T12:45:36;15.90;53.40
72940;DHT22;61094;51.154;13.570;2023-03-14T12:47:54;15.90;53.80
72940;DHT22;61094;51.154;13.570;2023-03-14T12:49:56;15.80;54.40
72940;DHT22;61094;51.154;13.570;2023-03-14T12:52:14;15.70;55.50
72940;DHT22;61094;51.154;13.570;2023-03-14T12:54:27;15.60;65.50
72940;DHT22;61094;51.154;13.570;2023-03-14T12:56:45;15.70;60.70
72940;DHT22;61094;51.154;13.570;2023-03-14T12:59:05;15.80;55.50
72940;DHT22;61094;51.154;13.570;2023-03-14T13:01:15;15.90;55.10
72940;DHT22;61094;51.154;13.570;2023-03-14T13:03:22;16.00;54.50
72940;DHT22;61094;51.154;13.570;2023-03-14T13:05:27;16.10;53.10
72940;DHT22;61094;51.154;13.570;2023-03-14T13:07:32;16.10;52.20
72940;DHT22;61094;51.154;13.570;2023-03-14T13:10:00;16.20;51.90
72940;DHT22;61094;51.154;13.570;2023-03-14T13:12:09;16.00;51.40
72940;DHT22;61094;51.154;13.570;2023-03-14T13:14:13;16.00;51.50
72940;DHT22;61094;51.154;13.570;2023-03-14T13:16:20;16.20;51.80
72940;DHT22;61094;51.154;13.570;2023-03-14T13:18:27;16.30;51.70
72940;DHT22;61094;51.154;13.570;2023-03-14T13:20:34;16.30;51.10
72940;DHT22;61094;51.154;13.570;2023-03-14T13:22:37;16.40;51.50
72940;DHT22;61094;51.154;13.570;2023-03-14T13:24:39;16.30;51.50
72940;DHT22;61094;51.154;13.570;2023-03-14T13:26:42;16.30;52.00
72940;DHT22;61094;51.154;13.570;2023-03-14T13:28:44;16.30;52.20
72940;DHT22;61094;51.154;13.570;2023-03-14T13:30:48;16.30;52.50
72940;DHT22;61094;51.154;13.570;2023-03-14T13:32:52;16.20;51.60